createdAt,value
2018-08-07T00:00:27.080Z,87.46
2018-08-07T00:01:27.071Z,87.18
2018-08-07T00:02:27.380Z,86.89
2018-08-07T00:03:27.049Z,87.37
2018-08-07T00:04:27.024Z,87.46
2018-08-07T00:05:27.429Z,86.99
2018-08-07T00:06:27.024Z,87.18
2018-08-07T00:07:26.995Z,87.18
2018-08-07T00:08:27.141Z,87.18
2018-08-07T00:09:27.631Z,87.52
2018-08-07T00:10:26.969Z,87.13
2018-08-07T00:11:27.053Z,87.23
2018-08-07T00:12:27.235Z,87.04
2018-08-07T00:13:26.939Z,87.23
2018-08-07T00:14:26.970Z,87.23
2018-08-07T00:15:26.902Z,87.42
2018-08-07T00:16:26.900Z,87.71
2018-08-07T00:17:26.879Z,87.42
2018-08-07T00:18:27.001Z,87.90
2018-08-07T00:19:27.155Z,87.42
2018-08-07T00:20:26.892Z,87.71
2018-08-07T00:21:26.846Z,87.33
2018-08-07T00:22:26.821Z,87.38
2018-08-07T00:23:26.870Z,87.76
2018-08-07T00:24:26.874Z,87.67
2018-08-07T00:25:26.899Z,87.76
2018-08-07T00:26:27.132Z,87.42
2018-08-07T00:27:26.855Z,87.42
2018-08-07T00:28:26.760Z,87.76
2018-08-07T00:29:26.741Z,87.57
2018-08-07T00:30:27.032Z,87.67
2018-08-07T00:31:26.717Z,87.57
2018-08-07T00:32:26.760Z,87.67
2018-08-07T00:33:26.997Z,87.76
2018-08-07T00:34:26.727Z,87.38
2018-08-07T00:35:26.675Z,87.86
2018-08-07T00:36:26.769Z,87.19
2018-08-07T00:37:26.657Z,88.15
2018-08-07T00:38:26.678Z,87.62
2018-08-07T00:39:26.670Z,87.34
2018-08-07T00:41:26.608Z,88.30
2018-08-07T00:43:26.568Z,87.53
2018-08-07T00:44:26.703Z,87.62
2018-08-07T00:47:26.827Z,87.82
2018-08-07T00:48:26.513Z,87.62
2018-08-07T00:49:26.524Z,87.53
2018-08-07T00:50:26.539Z,87.53
2018-08-07T00:51:26.495Z,87.92
2018-08-07T00:52:26.458Z,87.15
2018-08-07T00:53:26.502Z,87.34
2018-08-07T00:54:26.740Z,87.72
2018-08-07T00:55:26.422Z,87.24
2018-08-07T00:56:26.457Z,87.82
2018-08-07T00:57:26.507Z,87.72
2018-08-07T00:58:26.387Z,87.62
2018-08-07T00:59:26.374Z,87.92
2018-08-07T01:00:26.358Z,87.82
2018-08-07T01:01:26.655Z,87.34
2018-08-07T01:02:26.392Z,87.15
2018-08-07T01:03:26.376Z,87.72
2018-08-07T01:04:26.322Z,87.34
2018-08-07T01:05:26.305Z,87.43
2018-08-07T01:07:26.577Z,87.34
2018-08-07T01:08:26.316Z,87.43
2018-08-07T01:09:26.255Z,87.34
2018-08-07T01:10:26.241Z,87.53
2018-08-07T01:11:26.251Z,87.53
2018-08-07T01:12:26.224Z,87.72
2018-08-07T01:13:26.888Z,87.15
2018-08-07T01:14:26.342Z,87.82
2018-08-07T01:15:26.279Z,87.62
2018-08-07T01:16:26.163Z,87.34
2018-08-07T01:17:26.158Z,87.19
2018-08-07T01:18:26.140Z,87.05
2018-08-07T01:19:26.436Z,87.49
2018-08-07T01:20:26.173Z,87.10
2018-08-07T01:21:26.107Z,87.29
2018-08-07T01:23:26.076Z,87.62
2018-08-07T01:24:26.071Z,87.82
2018-08-07T01:25:26.356Z,87.24
2018-08-07T01:26:26.101Z,87.92
2018-08-07T01:27:26.047Z,88.01
2018-08-07T01:29:26.014Z,87.77
2018-08-07T01:30:25.998Z,87.62
2018-08-07T01:31:26.334Z,88.06
2018-08-07T01:33:25.975Z,87.77
2018-08-07T01:34:25.946Z,87.77
2018-08-07T01:35:25.933Z,87.49
2018-08-07T01:36:25.922Z,87.82
2018-08-07T01:37:26.231Z,87.29
2018-08-07T01:38:25.989Z,87.10
2018-08-07T01:39:25.890Z,87.39
2018-08-07T01:41:25.870Z,87.29
2018-08-07T01:42:25.858Z,87.87
2018-08-07T01:43:26.129Z,87.49
2018-08-07T01:44:25.883Z,87.68
2018-08-07T01:45:25.805Z,87.10
2018-08-07T01:46:25.792Z,87.39
2018-08-07T01:47:25.835Z,87.29
2018-08-07T01:48:25.768Z,87.77
2018-08-07T01:49:25.855Z,87.19
2018-08-07T01:50:26.101Z,87.10
2018-08-07T01:52:25.731Z,87.29
2018-08-07T01:53:25.718Z,87.68
2018-08-07T01:54:25.705Z,87.19
2018-08-07T01:55:25.689Z,86.62
2018-08-07T01:56:25.720Z,86.91
2018-08-07T01:58:26.088Z,87.39
2018-08-07T01:59:25.877Z,87.01
2018-08-07T02:00:25.689Z,87.58
2018-08-07T02:01:25.725Z,87.10
2018-08-07T02:02:25.646Z,87.01
2018-08-07T02:03:25.885Z,87.68
2018-08-07T02:04:25.570Z,87.58
2018-08-07T02:05:25.935Z,87.19
2018-08-07T02:06:25.640Z,87.49
2018-08-07T02:07:25.606Z,86.72
2018-08-07T02:08:25.568Z,87.01
2018-08-07T02:09:25.510Z,87.19
2018-08-07T02:11:25.884Z,86.00
2018-08-07T02:12:25.465Z,86.96
2018-08-07T02:13:25.463Z,86.29
2018-08-07T02:14:25.520Z,85.81
2018-08-07T02:15:25.435Z,86.96
2018-08-07T02:16:25.422Z,86.68
2018-08-07T02:17:25.413Z,86.38
2018-08-07T02:18:26.533Z,85.62
2018-08-07T02:20:25.421Z,86.58
2018-08-07T02:21:25.354Z,86.00
2018-08-07T02:22:25.437Z,86.29
2018-08-07T02:23:25.436Z,85.62
2018-08-07T02:24:25.324Z,86.38
2018-08-07T02:25:25.608Z,85.62
2018-08-07T02:26:25.336Z,86.10
2018-08-07T02:27:25.282Z,86.68
2018-08-07T02:28:25.263Z,86.29
2018-08-07T02:29:25.649Z,86.48
2018-08-07T02:30:25.240Z,86.48
2018-08-07T02:31:25.247Z,86.38
2018-08-07T02:32:25.567Z,85.71
2018-08-07T02:33:25.196Z,86.58
2018-08-07T02:34:25.205Z,86.58
2018-08-07T02:35:25.177Z,85.62
2018-08-07T02:36:25.167Z,85.52
2018-08-07T02:37:25.152Z,86.10
2018-08-07T02:38:25.495Z,85.91
2018-08-07T02:39:25.127Z,85.81
2018-08-07T02:40:25.231Z,86.19
2018-08-07T02:41:25.098Z,86.68
2018-08-07T02:42:25.099Z,85.71
2018-08-07T02:43:25.123Z,85.62
2018-08-07T02:44:25.361Z,85.71
2018-08-07T02:45:25.047Z,85.48
2018-08-07T02:46:25.033Z,85.62
2018-08-07T02:47:25.020Z,85.71
2018-08-07T02:48:25.105Z,85.77
2018-08-07T02:49:25.357Z,85.81
2018-08-07T02:50:25.287Z,85.77
2018-08-07T02:51:24.974Z,85.86
2018-08-07T02:52:24.980Z,86.05
2018-08-07T02:53:24.939Z,85.00
2018-08-07T02:54:24.928Z,84.81
2018-08-07T02:55:24.970Z,85.77
2018-08-07T02:56:25.199Z,85.19
2018-08-07T02:57:24.903Z,84.91
2018-08-07T02:58:24.875Z,84.61
2018-08-07T02:59:24.966Z,84.42
2018-08-07T03:00:24.880Z,84.71
2018-08-07T03:01:24.886Z,84.42
2018-08-07T03:02:25.244Z,85.19
2018-08-07T03:03:24.981Z,84.71
2018-08-07T03:04:24.797Z,84.61
2018-08-07T03:05:24.788Z,84.91
2018-08-07T03:06:24.770Z,84.23
2018-08-07T03:07:24.909Z,84.61
2018-08-07T03:08:25.044Z,84.61
2018-08-07T03:09:24.741Z,84.00
2018-08-07T03:10:24.720Z,84.38
2018-08-07T03:11:24.710Z,84.23
2018-08-07T03:12:24.692Z,83.61
2018-08-07T03:13:24.829Z,83.47
2018-08-07T03:14:25.009Z,84.48
2018-08-07T03:15:24.652Z,83.61
2018-08-07T03:16:24.641Z,83.52
2018-08-07T03:17:24.634Z,83.91
2018-08-07T03:18:24.739Z,83.42
2018-08-07T03:19:24.659Z,82.56
2018-08-07T03:20:24.593Z,83.61
2018-08-07T03:21:24.985Z,83.42
2018-08-07T03:22:24.561Z,82.85
2018-08-07T03:23:24.556Z,82.75
2018-08-07T03:24:24.531Z,82.85
2018-08-07T03:25:24.604Z,83.04
2018-08-07T03:27:24.490Z,83.23
2018-08-07T03:28:24.785Z,83.33
2018-08-07T03:29:24.468Z,83.33
2018-08-07T03:30:24.458Z,83.91
2018-08-07T03:31:24.496Z,84.00
2018-08-07T03:32:24.455Z,83.61
2018-08-07T03:33:24.514Z,84.19
2018-08-07T03:34:24.405Z,83.52
2018-08-07T03:35:24.839Z,84.28
2018-08-07T03:36:24.377Z,83.71
2018-08-07T03:37:24.408Z,83.52
2018-08-07T03:38:24.444Z,84.38
2018-08-07T03:39:24.339Z,83.61
2018-08-07T03:40:24.418Z,84.48
2018-08-07T03:41:24.305Z,83.52
2018-08-07T03:42:24.633Z,83.71
2018-08-07T03:43:24.330Z,82.75
2018-08-07T03:44:24.280Z,83.42
2018-08-07T03:45:25.025Z,83.33
2018-08-07T03:46:25.548Z,83.23
2018-08-07T03:47:24.420Z,83.52
2018-08-07T03:48:24.462Z,83.42
2018-08-07T03:49:24.762Z,83.61
2018-08-07T03:50:24.323Z,84.19
2018-08-07T03:52:24.547Z,84.19
2018-08-07T03:53:25.120Z,84.48
2018-08-07T03:54:24.271Z,84.00
2018-08-07T03:55:24.520Z,84.19
2018-08-07T03:57:24.139Z,83.52
2018-08-07T03:58:24.078Z,83.42
2018-08-07T04:00:24.057Z,83.61
2018-08-07T04:01:24.094Z,83.33
2018-08-07T04:03:24.417Z,83.81
2018-08-07T04:04:24.040Z,83.23
2018-08-07T04:05:23.996Z,83.61
2018-08-07T04:06:25.487Z,83.81
2018-08-07T04:08:24.044Z,83.33
2018-08-07T04:09:24.235Z,83.61
2018-08-07T04:10:23.924Z,83.61
2018-08-07T04:11:23.960Z,83.23
2018-08-07T04:12:23.890Z,83.23
2018-08-07T04:13:23.949Z,82.56
2018-08-07T04:14:23.866Z,82.75
2018-08-07T04:15:24.270Z,82.65
2018-08-07T04:17:23.871Z,83.52
2018-08-07T04:18:23.811Z,83.61
2018-08-07T04:19:23.845Z,82.94
2018-08-07T04:20:23.786Z,83.61
2018-08-07T04:21:24.179Z,83.14
2018-08-07T04:22:23.755Z,83.42
2018-08-07T04:23:23.804Z,83.81
2018-08-07T04:24:23.740Z,82.08
2018-08-07T04:25:23.774Z,82.27
2018-08-07T04:26:23.716Z,81.79
2018-08-07T04:27:23.994Z,81.89
2018-08-07T04:28:23.681Z,81.98
2018-08-07T04:29:23.671Z,80.83
2018-08-07T04:30:23.654Z,80.45
2018-08-07T04:31:23.692Z,81.41
2018-08-07T04:32:23.623Z,80.64
2018-08-07T04:33:23.617Z,81.70
2018-08-07T04:34:23.659Z,80.74
2018-08-07T04:35:23.586Z,81.02
2018-08-07T04:36:23.571Z,81.31
2018-08-07T04:37:23.609Z,81.79
2018-08-07T04:38:23.558Z,81.79
2018-08-07T04:39:23.828Z,82.08
2018-08-07T04:40:23.521Z,81.60
2018-08-07T04:41:23.512Z,82.37
2018-08-07T04:42:23.489Z,82.79
2018-08-07T04:43:23.530Z,82.31
2018-08-07T04:44:23.520Z,82.56
2018-08-07T04:45:23.933Z,82.12
2018-08-07T04:46:23.453Z,82.21
2018-08-07T04:47:23.481Z,83.04
2018-08-07T04:48:23.503Z,82.65
2018-08-07T04:49:23.497Z,81.93
2018-08-07T04:50:23.724Z,81.35
2018-08-07T04:51:23.715Z,81.64
2018-08-07T04:52:23.666Z,80.68
2018-08-07T04:53:23.349Z,80.97
2018-08-07T04:54:23.422Z,81.74
2018-08-07T04:55:23.485Z,81.64
2018-08-07T04:56:23.350Z,80.58
2018-08-07T04:57:23.304Z,80.40
2018-08-07T04:58:23.327Z,80.30
2018-08-07T04:59:23.619Z,79.53
2018-08-07T05:00:23.569Z,79.82
2018-08-07T05:01:23.301Z,80.30
2018-08-07T05:02:23.285Z,79.53
2018-08-07T05:03:23.257Z,80.68
2018-08-07T05:04:23.214Z,79.82
2018-08-07T05:05:23.293Z,79.47
2018-08-07T05:06:23.521Z,80.87
2018-08-07T05:07:23.297Z,78.90
2018-08-07T05:08:23.147Z,79.05
2018-08-07T05:09:23.234Z,79.19
2018-08-07T05:10:23.197Z,79.82
2018-08-07T05:11:23.366Z,79.28
2018-08-07T05:12:23.130Z,79.28
2018-08-07T05:13:23.641Z,81.10
2018-08-07T05:14:23.075Z,78.99
2018-08-07T05:15:23.152Z,79.67
2018-08-07T05:16:23.046Z,80.15
2018-08-07T05:17:23.033Z,79.76
2018-08-07T05:18:23.639Z,78.99
2018-08-07T05:19:23.393Z,79.47
2018-08-07T05:20:23.347Z,80.05
2018-08-07T05:21:23.241Z,79.86
2018-08-07T05:22:23.127Z,80.91
2018-08-07T05:23:23.434Z,80.91
2018-08-07T05:24:23.033Z,81.10
2018-08-07T05:25:23.016Z,80.05
2018-08-07T05:26:22.921Z,79.67
2018-08-07T05:27:23.216Z,79.19
2018-08-07T05:28:22.897Z,80.15
2018-08-07T05:29:22.899Z,79.57
2018-08-07T05:30:22.925Z,80.82
2018-08-07T05:32:22.841Z,78.94
2018-08-07T05:33:23.124Z,79.67
2018-08-07T05:34:22.822Z,78.36
2018-08-07T05:35:22.805Z,79.13
2018-08-07T05:36:22.906Z,78.65
2018-08-07T05:37:22.834Z,79.61
2018-08-07T05:38:22.769Z,78.45
2018-08-07T05:39:23.048Z,78.17
2018-08-07T05:41:22.744Z,76.92
2018-08-07T05:42:22.786Z,78.36
2018-08-07T05:43:22.847Z,78.45
2018-08-07T05:44:22.788Z,79.03
2018-08-07T05:45:22.985Z,77.44
2018-08-07T05:46:22.968Z,79.13
2018-08-07T05:47:22.650Z,76.82
2018-08-07T05:48:22.654Z,77.63
2018-08-07T05:49:22.891Z,78.30
2018-08-07T05:50:22.751Z,75.52
2018-08-07T05:51:22.989Z,78.40
2018-08-07T05:52:22.597Z,75.90
2018-08-07T05:54:23.028Z,77.63
2018-08-07T05:56:22.542Z,77.83
2018-08-07T05:57:22.830Z,76.77
2018-08-07T05:58:22.518Z,80.94
2018-08-07T05:59:22.507Z,81.71
2018-08-07T06:00:22.499Z,78.53
2018-08-07T06:01:22.730Z,79.21
2018-08-07T06:03:22.768Z,79.79
2018-08-07T06:04:22.497Z,79.60
2018-08-07T06:05:27.361Z,78.63
2018-08-07T06:06:22.820Z,79.92
2018-08-07T06:07:22.461Z,78.67
2018-08-07T06:08:22.410Z,80.11
2018-08-07T06:09:22.764Z,81.37
2018-08-07T06:11:22.374Z,80.88
2018-08-07T06:12:22.398Z,83.96
2018-08-07T06:13:22.394Z,82.61
2018-08-07T06:14:22.325Z,84.10
2018-08-07T06:15:22.927Z,82.37
2018-08-07T06:16:23.535Z,82.37
2018-08-07T06:17:22.437Z,85.06
2018-08-07T06:18:22.290Z,77.56
2018-08-07T06:19:22.324Z,83.04
2018-08-07T06:20:22.262Z,85.83
2018-08-07T06:21:22.251Z,84.72
2018-08-07T06:22:22.616Z,81.35
2018-08-07T06:23:24.801Z,85.87
2018-08-07T06:24:22.222Z,82.89
2018-08-07T06:25:22.269Z,83.85
2018-08-07T06:26:22.235Z,86.07
2018-08-07T06:27:22.191Z,86.69
2018-08-07T06:28:22.595Z,86.21
2018-08-07T06:30:22.217Z,87.36
2018-08-07T06:31:22.320Z,85.05
2018-08-07T06:32:22.129Z,84.80
2018-08-07T06:33:22.255Z,87.12
2018-08-07T06:34:22.097Z,88.56
2018-08-07T06:35:22.111Z,87.02
2018-08-07T06:36:22.087Z,88.17
2018-08-07T06:37:22.135Z,87.74
2018-08-07T06:38:22.114Z,86.68
2018-08-07T06:40:22.330Z,85.61
2018-08-07T06:41:22.040Z,87.64
2018-08-07T06:43:22.050Z,87.35
2018-08-07T06:44:22.000Z,86.10
2018-08-07T06:45:21.978Z,88.84
2018-08-07T06:46:22.310Z,86.24
2018-08-07T06:47:21.951Z,87.68
2018-08-07T06:49:21.979Z,87.10
2018-08-07T06:50:21.920Z,89.61
2018-08-07T06:51:21.916Z,87.92
2018-08-07T06:52:22.560Z,88.69
2018-08-07T06:53:22.283Z,87.15
2018-08-07T06:54:21.875Z,87.73
2018-08-07T06:55:21.916Z,87.34
2018-08-07T06:56:21.852Z,87.29
2018-08-07T06:57:21.845Z,87.29
2018-08-07T06:58:22.133Z,87.96
2018-08-07T06:59:21.837Z,87.48
2018-08-07T07:01:21.952Z,87.58
2018-08-07T07:02:21.796Z,87.67
2018-08-07T07:03:21.813Z,87.09
2018-08-07T07:04:21.944Z,89.41
2018-08-07T07:05:22.078Z,84.82
2018-08-07T07:06:21.811Z,83.70
2018-08-07T07:08:21.799Z,80.46
2018-08-07T07:09:21.733Z,73.78
2018-08-07T07:10:21.720Z,70.92
2018-08-07T07:11:22.013Z,70.62
2018-08-07T07:12:21.712Z,67.18
2018-08-07T07:13:21.739Z,71.62
2018-08-07T07:14:21.833Z,65.53
2018-08-07T07:15:21.668Z,61.66
2018-08-07T07:16:21.652Z,62.17
2018-08-07T07:17:21.939Z,62.17
2018-08-07T07:18:21.631Z,62.07
2018-08-07T07:20:21.859Z,60.82
2018-08-07T07:21:21.607Z,59.56
2018-08-07T07:22:21.994Z,57.26
2018-08-07T07:23:21.878Z,57.36
2018-08-07T07:24:21.576Z,56.23
2018-08-07T07:25:21.568Z,58.06
2018-08-07T07:27:21.867Z,54.60
2018-08-07T07:28:30.190Z,54.21
2018-08-07T07:29:21.994Z,56.05
2018-08-07T07:30:21.547Z,54.70
2018-08-07T07:31:21.525Z,55.08
2018-08-07T07:33:21.554Z,55.02
2018-08-07T07:34:21.541Z,54.63
2018-08-07T07:35:21.854Z,55.69
2018-08-07T07:36:21.514Z,53.17
2018-08-07T07:37:21.467Z,52.52
2018-08-07T07:38:21.520Z,52.72
2018-08-07T07:40:21.868Z,51.75
2018-08-07T07:42:21.712Z,51.18
2018-08-07T07:43:21.415Z,51.97
2018-08-07T07:44:21.451Z,51.21
2018-08-07T07:45:21.585Z,50.63
2018-08-07T07:46:21.541Z,49.68
2018-08-07T07:47:21.375Z,49.78
2018-08-07T07:48:21.671Z,49.41
2018-08-07T07:51:21.519Z,49.73
2018-08-07T07:52:21.846Z,50.80
2018-08-07T07:53:21.384Z,49.05
2018-08-07T07:56:21.485Z,46.73
2018-08-07T07:59:21.266Z,49.68
2018-08-07T08:00:21.435Z,50.07
2018-08-07T08:01:21.773Z,47.66
2018-08-07T08:03:21.347Z,46.88
2018-08-07T08:04:21.238Z,48.27
2018-08-07T08:05:21.335Z,46.61
2018-08-07T08:06:22.070Z,44.95
2018-08-07T08:07:21.313Z,44.95
2018-08-07T08:09:21.262Z,45.65
2018-08-07T08:10:21.246Z,45.07
2018-08-07T08:12:21.225Z,45.68
2018-08-07T08:13:21.182Z,44.31
2018-08-07T08:14:21.527Z,45.61
2018-08-07T08:15:21.327Z,44.92
2018-08-07T08:16:21.252Z,42.94
2018-08-07T08:17:21.166Z,41.19
2018-08-07T08:19:21.275Z,43.75
2018-08-07T08:20:23.081Z,43.75
2018-08-07T08:21:21.184Z,44.04
2018-08-07T08:22:21.308Z,43.28
2018-08-07T08:23:21.225Z,43.87
2018-08-07T08:24:21.119Z,42.79
2018-08-07T08:25:21.108Z,43.69
2018-08-07T08:27:21.207Z,41.54
2018-08-07T08:28:21.129Z,39.96
2018-08-07T08:29:21.307Z,41.25
2018-08-07T08:30:21.140Z,45.36
2018-08-07T08:31:21.827Z,45.76
2018-08-07T08:32:21.388Z,44.69
2018-08-07T08:33:21.144Z,42.35
2018-08-07T08:34:21.215Z,42.46
2018-08-07T08:35:21.212Z,42.66
2018-08-07T08:36:21.503Z,41.68
2018-08-07T08:37:21.395Z,43.46
2018-08-07T08:38:21.744Z,44.54
2018-08-07T08:39:21.368Z,41.70
2018-08-07T08:40:21.051Z,41.11
2018-08-07T08:41:24.681Z,43.27
2018-08-07T08:42:21.044Z,46.13
2018-08-07T08:43:21.051Z,43.09
2018-08-07T08:44:21.350Z,42.13
2018-08-07T08:45:21.133Z,42.03
2018-08-07T08:47:21.071Z,41.15
2018-08-07T08:48:21.596Z,41.76
2018-08-07T08:49:21.125Z,42.25
2018-08-07T08:50:22.021Z,43.43
2018-08-07T08:51:21.897Z,41.47
2018-08-07T08:52:21.087Z,43.23
2018-08-07T08:53:21.112Z,40.09
2018-08-07T08:54:21.079Z,41.86
2018-08-07T08:55:21.055Z,43.04
2018-08-07T08:56:21.307Z,43.74
2018-08-07T08:58:21.005Z,40.11
2018-08-07T08:59:20.999Z,37.84
2018-08-07T09:00:21.012Z,38.62
2018-08-07T09:01:20.999Z,37.54
2018-08-07T09:02:21.308Z,36.86
2018-08-07T09:03:21.443Z,37.23
2018-08-07T09:04:21.003Z,38.74
2018-08-07T09:05:21.004Z,42.19
2018-08-07T09:06:20.997Z,40.92
2018-08-07T09:07:20.989Z,39.56
2018-08-07T09:08:21.296Z,37.60
2018-08-07T09:09:21.065Z,36.13
2018-08-07T09:10:21.576Z,34.03
2018-08-07T09:11:21.092Z,37.38
2018-08-07T09:12:21.119Z,36.21
2018-08-07T09:13:20.987Z,36.32
2018-08-07T09:14:21.288Z,38.29
2018-08-07T09:15:21.049Z,39.09
2018-08-07T09:16:20.979Z,37.24
2018-08-07T09:17:21.089Z,38.74
2018-08-07T09:18:20.996Z,37.76
2018-08-07T09:19:21.020Z,36.59
2018-08-07T09:20:21.314Z,34.51
2018-08-07T09:21:21.381Z,34.22
2018-08-07T09:22:20.988Z,35.90
2018-08-07T09:23:21.018Z,33.62
2018-08-07T09:24:21.886Z,34.11
2018-08-07T09:25:21.051Z,34.92
2018-08-07T09:26:21.283Z,33.84
2018-08-07T09:27:21.061Z,34.72
2018-08-07T09:28:20.986Z,34.84
2018-08-07T09:29:21.045Z,37.40
2018-08-07T09:30:20.993Z,34.15
2018-08-07T09:31:20.994Z,35.82
2018-08-07T09:32:21.281Z,35.05
2018-08-07T09:33:21.034Z,33.17
2018-08-07T09:34:20.989Z,32.36
2018-08-07T09:35:20.987Z,32.36
2018-08-07T09:36:21.043Z,32.17
2018-08-07T09:37:21.050Z,34.53
2018-08-07T09:38:21.288Z,33.25
2018-08-07T09:39:21.148Z,33.17
2018-08-07T09:40:21.102Z,33.56
2018-08-07T09:41:20.988Z,33.17
2018-08-07T09:42:20.996Z,33.67
2018-08-07T09:44:21.437Z,34.30
2018-08-07T09:45:21.048Z,30.93
2018-08-07T09:46:21.060Z,30.83
2018-08-07T09:49:21.024Z,30.76
2018-08-07T09:51:21.070Z,32.35
2018-08-07T09:52:21.028Z,31.26
2018-08-07T09:53:21.181Z,30.96
2018-08-07T09:54:21.030Z,30.88
2018-08-07T09:55:21.019Z,31.57
2018-08-07T09:56:21.374Z,31.57
2018-08-07T09:57:21.072Z,31.59
2018-08-07T09:58:21.033Z,32.28
2018-08-07T09:59:21.028Z,29.91
2018-08-07T10:00:23.047Z,28.50
2018-08-07T10:01:21.034Z,30.98
2018-08-07T10:02:21.337Z,31.76
2018-08-07T10:03:21.093Z,31.78
2018-08-07T10:04:21.049Z,33.37
2018-08-07T10:05:21.377Z,33.69
2018-08-07T10:06:21.176Z,33.80
2018-08-07T10:07:21.081Z,30.54
2018-08-07T10:08:21.376Z,29.65
2018-08-07T10:09:21.102Z,30.64
2018-08-07T10:10:22.001Z,31.94
2018-08-07T10:11:21.156Z,31.65
2018-08-07T10:12:21.067Z,29.65
2018-08-07T10:13:21.068Z,30.85
2018-08-07T10:14:21.473Z,30.55
2018-08-07T10:15:21.146Z,31.94
2018-08-07T10:16:21.082Z,29.17
2018-08-07T10:17:21.244Z,30.55
2018-08-07T10:20:21.390Z,29.58
2018-08-07T10:22:21.162Z,30.19
2018-08-07T10:23:21.418Z,30.19
2018-08-07T10:24:21.128Z,30.39
2018-08-07T10:25:21.151Z,31.49
2018-08-07T10:26:21.429Z,31.20
2018-08-07T10:27:21.169Z,30.00
2018-08-07T10:28:21.239Z,27.33
2018-08-07T10:29:21.136Z,30.40
2018-08-07T10:30:21.161Z,31.69
2018-08-07T10:31:21.166Z,31.81
2018-08-07T10:32:21.486Z,30.52
2018-08-07T10:33:21.197Z,27.23
2018-08-07T10:34:21.203Z,28.21
2018-08-07T10:35:21.160Z,29.69
2018-08-07T10:36:21.463Z,29.69
2018-08-07T10:37:21.182Z,29.99
2018-08-07T10:38:21.474Z,31.29
2018-08-07T10:39:21.248Z,28.52
2018-08-07T10:40:21.240Z,27.81
2018-08-07T10:41:22.104Z,30.09
2018-08-07T10:42:21.207Z,29.90
2018-08-07T10:46:21.582Z,29.71
2018-08-07T10:47:21.241Z,29.13
2018-08-07T10:48:21.260Z,27.63
2018-08-07T10:49:21.232Z,27.74
2018-08-07T10:50:22.078Z,29.92
2018-08-07T10:51:27.992Z,29.24
2018-08-07T10:52:21.366Z,28.17
2018-08-07T10:53:21.253Z,29.55
2018-08-07T10:54:21.266Z,27.87
2018-08-07T10:56:21.269Z,26.07
2018-08-07T10:57:21.710Z,27.37
2018-08-07T10:58:21.361Z,25.24
2018-08-07T11:00:29.157Z,25.82
2018-08-07T11:01:21.323Z,27.25
2018-08-07T11:02:21.299Z,27.49
2018-08-07T11:03:21.657Z,27.42
2018-08-07T11:04:21.405Z,28.32
2018-08-07T11:05:21.336Z,29.83
2018-08-07T11:06:22.100Z,25.98
2018-08-07T11:07:21.428Z,26.20
2018-08-07T11:08:21.605Z,26.31
2018-08-07T11:09:22.110Z,25.30
2018-08-07T11:11:21.506Z,26.74
2018-08-07T11:12:21.389Z,25.74
2018-08-07T11:13:21.374Z,27.15
2018-08-07T11:14:21.376Z,29.06
2018-08-07T11:16:21.726Z,26.10
2018-08-07T11:17:21.444Z,24.13
2018-08-07T11:18:21.394Z,24.51
2018-08-07T11:19:21.401Z,24.57
2018-08-07T11:20:21.419Z,25.63
2018-08-07T11:22:21.774Z,26.50
2018-08-07T11:24:21.581Z,28.03
2018-08-07T11:25:21.497Z,25.96
2018-08-07T11:26:21.490Z,26.17
2018-08-07T11:27:21.454Z,26.26
2018-08-07T11:29:21.485Z,26.80
2018-08-07T11:30:21.489Z,27.11
2018-08-07T11:31:21.471Z,26.40
2018-08-07T11:33:21.499Z,26.13
2018-08-07T11:34:22.119Z,26.21
2018-08-07T11:35:21.525Z,28.70
2018-08-07T11:36:21.644Z,26.67
2018-08-07T11:37:21.516Z,27.70
2018-08-07T11:38:21.571Z,29.13
2018-08-07T11:39:21.523Z,31.10
2018-08-07T11:40:21.873Z,30.86
2018-08-07T11:41:21.544Z,28.24
2018-08-07T11:42:21.545Z,27.29
2018-08-07T11:43:21.549Z,27.29
2018-08-07T11:44:21.605Z,27.42
2018-08-07T11:45:21.550Z,25.91
2018-08-07T11:47:21.666Z,28.49
2018-08-07T11:49:21.620Z,29.54
2018-08-07T11:50:21.714Z,27.16
2018-08-07T11:51:21.660Z,26.28
2018-08-07T11:52:22.609Z,29.47
2018-08-07T11:53:22.056Z,29.80
2018-08-07T11:56:21.647Z,25.68
2018-08-07T11:57:21.626Z,25.16
2018-08-07T11:58:23.310Z,26.60
2018-08-07T11:59:21.612Z,26.70
2018-08-07T12:00:21.802Z,25.42
2018-08-07T12:01:21.722Z,25.73
2018-08-07T12:02:21.671Z,25.52
2018-08-07T12:03:22.071Z,28.34
2018-08-07T12:04:21.987Z,30.15
2018-08-07T12:05:21.746Z,25.00
2018-08-07T12:06:21.758Z,23.77
2018-08-07T12:07:21.660Z,27.64
2018-08-07T12:08:21.686Z,26.26
2018-08-07T12:10:21.745Z,26.27
2018-08-07T12:11:22.748Z,24.76
2018-08-07T12:12:21.899Z,24.33
2018-08-07T12:13:21.744Z,25.96
2018-08-07T12:14:21.709Z,29.38
2018-08-07T12:15:21.709Z,28.68
2018-08-07T12:16:21.809Z,29.06
2018-08-07T12:17:22.055Z,29.55
2018-08-07T12:18:21.745Z,29.65
2018-08-07T12:19:21.720Z,29.37
2018-08-07T12:20:21.724Z,26.36
2018-08-07T12:21:21.729Z,27.24
2018-08-07T12:22:21.792Z,28.70
2018-08-07T12:23:22.035Z,28.69
2018-08-07T12:24:21.783Z,29.30
2018-08-07T12:25:21.748Z,29.54
2018-08-07T12:26:21.752Z,27.02
2018-08-07T12:27:21.749Z,25.46
2018-08-07T12:28:23.456Z,26.17
2018-08-07T12:29:22.185Z,24.05
2018-08-07T12:30:21.766Z,25.23
2018-08-07T12:31:21.754Z,25.92
2018-08-07T12:32:21.991Z,25.45
2018-08-07T12:33:21.874Z,24.54
2018-08-07T12:34:21.970Z,25.14
2018-08-07T12:35:22.076Z,24.25
2018-08-07T12:36:21.876Z,24.76
2018-08-07T12:37:21.984Z,24.18
2018-08-07T12:38:22.300Z,22.89
2018-08-07T12:39:21.859Z,23.19
2018-08-07T12:41:23.475Z,24.56
2018-08-07T12:42:21.846Z,23.65
2018-08-07T12:43:21.890Z,25.37
2018-08-07T12:44:21.805Z,23.41
2018-08-07T12:45:21.807Z,25.18
2018-08-07T12:46:21.897Z,24.01
2018-08-07T12:47:22.222Z,22.82
2018-08-07T12:48:21.808Z,22.45
2018-08-07T12:49:21.855Z,22.06
2018-08-07T12:50:21.843Z,22.82
2018-08-07T12:51:21.825Z,24.11
2018-08-07T12:52:21.883Z,22.81
2018-08-07T12:53:22.213Z,22.92
2018-08-07T12:54:21.842Z,22.22
2018-08-07T12:56:21.914Z,25.04
2018-08-07T12:57:21.885Z,22.99
2018-08-07T12:58:21.891Z,24.38
2018-08-07T12:59:22.404Z,25.19
2018-08-07T13:00:21.865Z,24.20
2018-08-07T13:01:21.894Z,23.70
2018-08-07T13:02:21.860Z,23.02
2018-08-07T13:04:21.952Z,23.08
2018-08-07T13:05:22.166Z,24.46
2018-08-07T13:06:22.742Z,23.47
2018-08-07T13:07:21.909Z,24.30
2018-08-07T13:08:21.937Z,22.91
2018-08-07T13:09:21.895Z,23.43
2018-08-07T13:10:21.935Z,22.44
2018-08-07T13:11:22.196Z,24.04
2018-08-07T13:12:21.906Z,22.37
2018-08-07T13:13:21.915Z,22.84
2018-08-07T13:14:21.912Z,22.95
2018-08-07T13:15:22.165Z,22.52
2018-08-07T13:18:22.266Z,23.82
2018-08-07T13:19:21.936Z,23.81
2018-08-07T13:20:21.921Z,21.53
2018-08-07T13:22:22.098Z,24.43
2018-08-07T13:23:21.923Z,22.13
2018-08-07T13:24:22.229Z,23.50
2018-08-07T13:25:21.935Z,24.89
2018-08-07T13:26:21.990Z,24.46
2018-08-07T13:27:21.946Z,25.26
2018-08-07T13:28:21.963Z,24.15
2018-08-07T13:29:21.983Z,24.27
2018-08-07T13:30:22.327Z,25.60
2018-08-07T13:31:21.961Z,24.47
2018-08-07T13:32:21.970Z,25.95
2018-08-07T13:33:21.973Z,25.51
2018-08-07T13:34:21.969Z,26.87
2018-08-07T13:35:21.982Z,26.25
2018-08-07T13:36:22.334Z,27.22
2018-08-07T13:37:22.049Z,27.99
2018-08-07T13:38:21.996Z,29.27
2018-08-07T13:40:21.991Z,26.08
2018-08-07T13:41:21.987Z,26.14
2018-08-07T13:43:22.021Z,25.81
2018-08-07T13:44:21.989Z,27.24
2018-08-07T13:45:22.010Z,24.47
2018-08-07T13:46:22.001Z,23.66
2018-08-07T13:47:22.001Z,29.11
2018-08-07T13:48:23.550Z,24.63
2018-08-07T13:49:22.011Z,24.44
2018-08-07T13:50:22.121Z,27.86
2018-08-07T13:51:22.108Z,26.14
2018-08-07T13:52:22.010Z,28.19
2018-08-07T13:53:22.023Z,28.27
2018-08-07T13:54:22.390Z,29.34
2018-08-07T13:55:22.355Z,29.05
2018-08-07T13:56:22.091Z,30.13
2018-08-07T13:57:22.110Z,29.23
2018-08-07T13:58:22.034Z,29.07
2018-08-07T13:59:22.029Z,29.09
2018-08-07T14:00:22.364Z,28.80
2018-08-07T14:01:22.165Z,27.82
2018-08-07T14:02:22.076Z,27.00
2018-08-07T14:03:22.069Z,27.68
2018-08-07T14:04:22.037Z,29.55
2018-08-07T14:05:22.064Z,28.36
2018-08-07T14:06:22.402Z,28.95
2018-08-07T14:07:23.343Z,29.14
2018-08-07T14:08:22.280Z,28.80
2018-08-07T14:09:22.827Z,29.17
2018-08-07T14:10:22.246Z,27.02
2018-08-07T14:11:22.198Z,30.33
2018-08-07T14:12:22.757Z,26.28
2018-08-07T14:13:22.391Z,25.80